sensor_id;sensor_type;location;lat;lon;timestamp;P1;durP1;ratioP1;P2;durP2;ratioP2
21868;SDS011;11099;41.564;23.296;2023-06-26T00:01:49;18.15;;;8.55;;
21868;SDS011;11099;41.564;23.296;2023-06-26T00:04:15;11.75;;;8.88;;
21868;SDS011;11099;41.564;23.296;2023-06-26T00:06:40;13.25;;;9.20;;
21868;SDS011;11099;41.564;23.296;2023-06-26T00:09:06;13.90;;;9.10;;
21868;SDS011;11099;41.564;23.296;2023-06-26T00:11:32;11.80;;;9.27;;
21868;SDS011;11099;41.564;23.296;2023-06-26T00:13:58;11.85;;;8.85;;
21868;SDS011;11099;41.564;23.296;2023-06-26T00:16:27;12.43;;;8.40;;
21868;SDS011;11099;41.564;23.296;2023-06-26T00:18:53;14.77;;;9.80;;
21868;SDS011;11099;41.564;23.296;2023-06-26T00:21:19;18.00;;;9.32;;
21868;SDS011;11099;41.564;23.296;2023-06-26T00:23:45;15.05;;;9.50;;
21868;SDS011;11099;41.564;23.296;2023-06-26T00:26:11;12.55;;;9.55;;
21868;SDS011;11099;41.564;23.296;2023-06-26T00:28:37;14.80;;;9.07;;
21868;SDS011;11099;41.564;23.296;2023-06-26T00:31:03;15.90;;;10.07;;
21868;SDS011;11099;41.564;23.296;2023-06-26T00:33:28;14.15;;;11.07;;
21868;SDS011;11099;41.564;23.296;2023-06-26T00:35:54;16.45;;;10.63;;
21868;SDS011;11099;41.564;23.296;2023-06-26T00:38:19;16.63;;;10.65;;
21868;SDS011;11099;41.564;23.296;2023-06-26T00:40:45;21.27;;;11.52;;
21868;SDS011;11099;41.564;23.296;2023-06-26T00:43:10;16.67;;;11.30;;
21868;SDS011;11099;41.564;23.296;2023-06-26T00:45:36;15.07;;;10.43;;
21868;SDS011;11099;41.564;23.296;2023-06-26T00:48:01;13.90;;;9.98;;
21868;SDS011;11099;41.564;23.296;2023-06-26T00:50:28;19.02;;;12.18;;
21868;SDS011;11099;41.564;23.296;2023-06-26T00:52:54;14.88;;;10.10;;
21868;SDS011;11099;41.564;23.296;2023-06-26T00:55:21;18.07;;;10.67;;
21868;SDS011;11099;41.564;23.296;2023-06-26T00:57:47;13.55;;;10.20;;
21868;SDS011;11099;41.564;23.296;2023-06-26T01:00:13;16.17;;;10.85;;
21868;SDS011;11099;41.564;23.296;2023-06-26T01:02:39;17.30;;;10.77;;
21868;SDS011;11099;41.564;23.296;2023-06-26T01:05:05;12.55;;;9.70;;
21868;SDS011;11099;41.564;23.296;2023-06-26T01:07:32;11.75;;;9.30;;
21868;SDS011;11099;41.564;23.296;2023-06-26T01:10:02;14.73;;;9.88;;
21868;SDS011;11099;41.564;23.296;2023-06-26T01:12:30;14.40;;;9.30;;
21868;SDS011;11099;41.564;23.296;2023-06-26T01:14:57;10.40;;;8.35;;
21868;SDS011;11099;41.564;23.296;2023-06-26T01:17:23;12.80;;;9.07;;
21868;SDS011;11099;41.564;23.296;2023-06-26T01:19:49;12.27;;;9.30;;
21868;SDS011;11099;41.564;23.296;2023-06-26T01:25:14;14.88;;;10.25;;
21868;SDS011;11099;41.564;23.296;2023-06-26T01:27:48;14.07;;;10.02;;
21868;SDS011;11099;41.564;23.296;2023-06-26T01:30:16;18.67;;;11.95;;
21868;SDS011;11099;41.564;23.296;2023-06-26T01:32:43;15.32;;;11.43;;
21868;SDS011;11099;41.564;23.296;2023-06-26T01:35:10;21.48;;;12.68;;
21868;SDS011;11099;41.564;23.296;2023-06-26T01:37:37;21.48;;;13.40;;
21868;SDS011;11099;41.564;23.296;2023-06-26T01:40:02;18.98;;;13.32;;
21868;SDS011;11099;41.564;23.296;2023-06-26T01:42:31;15.52;;;12.02;;
21868;SDS011;11099;41.564;23.296;2023-06-26T01:45:00;18.05;;;11.60;;
21868;SDS011;11099;41.564;23.296;2023-06-26T01:47:32;18.25;;;12.00;;
21868;SDS011;11099;41.564;23.296;2023-06-26T01:50:24;15.98;;;12.13;;
21868;SDS011;11099;41.564;23.296;2023-06-26T01:52:52;16.25;;;11.40;;
21868;SDS011;11099;41.564;23.296;2023-06-26T01:55:25;19.33;;;12.50;;
21868;SDS011;11099;41.564;23.296;2023-06-26T01:58:01;17.73;;;12.35;;
21868;SDS011;11099;41.564;23.296;2023-06-26T02:00:27;20.98;;;12.25;;
21868;SDS011;11099;41.564;23.296;2023-06-26T02:02:53;15.10;;;11.80;;
21868;SDS011;11099;41.564;23.296;2023-06-26T02:05:19;16.23;;;11.50;;
21868;SDS011;11099;41.564;23.296;2023-06-26T02:07:45;16.17;;;12.32;;
21868;SDS011;11099;41.564;23.296;2023-06-26T02:10:10;18.67;;;11.82;;
21868;SDS011;11099;41.564;23.296;2023-06-26T02:12:36;19.67;;;12.52;;
21868;SDS011;11099;41.564;23.296;2023-06-26T02:15:20;15.05;;;11.05;;
21868;SDS011;11099;41.564;23.296;2023-06-26T02:17:46;14.63;;;11.07;;
21868;SDS011;11099;41.564;23.296;2023-06-26T02:20:13;15.68;;;11.55;;
21868;SDS011;11099;41.564;23.296;2023-06-26T02:22:39;17.77;;;13.20;;
21868;SDS011;11099;41.564;23.296;2023-06-26T02:25:05;20.65;;;13.18;;
21868;SDS011;11099;41.564;23.296;2023-06-26T02:27:31;18.00;;;12.65;;
21868;SDS011;11099;41.564;23.296;2023-06-26T02:29:56;15.55;;;12.20;;
21868;SDS011;11099;41.564;23.296;2023-06-26T02:32:22;16.73;;;13.07;;
21868;SDS011;11099;41.564;23.296;2023-06-26T02:34:47;14.02;;;10.25;;
21868;SDS011;11099;41.564;23.296;2023-06-26T02:37:13;18.23;;;10.35;;
21868;SDS011;11099;41.564;23.296;2023-06-26T02:39:38;16.48;;;11.55;;
21868;SDS011;11099;41.564;23.296;2023-06-26T02:42:04;11.88;;;10.57;;
21868;SDS011;11099;41.564;23.296;2023-06-26T02:44:30;15.98;;;10.60;;
21868;SDS011;11099;41.564;23.296;2023-06-26T02:46:55;18.65;;;10.35;;
21868;SDS011;11099;41.564;23.296;2023-06-26T02:49:21;15.82;;;10.45;;
21868;SDS011;11099;41.564;23.296;2023-06-26T02:51:46;23.23;;;13.77;;
21868;SDS011;11099;41.564;23.296;2023-06-26T02:54:12;14.60;;;10.45;;
21868;SDS011;11099;41.564;23.296;2023-06-26T02:56:37;17.67;;;12.32;;
21868;SDS011;11099;41.564;23.296;2023-06-26T02:59:03;19.08;;;14.85;;
21868;SDS011;11099;41.564;23.296;2023-06-26T03:01:29;21.13;;;15.38;;
21868;SDS011;11099;41.564;23.296;2023-06-26T03:03:55;20.17;;;15.77;;
21868;SDS011;11099;41.564;23.296;2023-06-26T03:06:20;25.02;;;16.92;;
21868;SDS011;11099;41.564;23.296;2023-06-26T03:08:46;21.23;;;16.58;;
21868;SDS011;11099;41.564;23.296;2023-06-26T03:11:11;25.65;;;17.65;;
21868;SDS011;11099;41.564;23.296;2023-06-26T03:13:37;22.08;;;16.58;;
21868;SDS011;11099;41.564;23.296;2023-06-26T03:16:03;21.88;;;16.85;;
21868;SDS011;11099;41.564;23.296;2023-06-26T03:18:29;23.67;;;15.75;;
21868;SDS011;11099;41.564;23.296;2023-06-26T03:20:55;22.63;;;16.90;;
21868;SDS011;11099;41.564;23.296;2023-06-26T03:23:21;22.98;;;15.98;;
21868;SDS011;11099;41.564;23.296;2023-06-26T03:25:47;20.80;;;15.52;;
21868;SDS011;11099;41.564;23.296;2023-06-26T03:28:13;23.63;;;15.57;;
21868;SDS011;11099;41.564;23.296;2023-06-26T03:30:39;19.70;;;15.77;;
21868;SDS011;11099;41.564;23.296;2023-06-26T03:33:05;22.85;;;16.38;;
21868;SDS011;11099;41.564;23.296;2023-06-26T03:35:30;22.23;;;17.77;;
21868;SDS011;11099;41.564;23.296;2023-06-26T03:37:57;30.55;;;17.38;;
21868;SDS011;11099;41.564;23.296;2023-06-26T03:40:22;19.90;;;17.13;;
21868;SDS011;11099;41.564;23.296;2023-06-26T03:42:48;24.98;;;17.95;;
21868;SDS011;11099;41.564;23.296;2023-06-26T03:45:13;26.27;;;18.55;;
21868;SDS011;11099;41.564;23.296;2023-06-26T03:47:39;22.52;;;17.05;;
21868;SDS011;11099;41.564;23.296;2023-06-26T03:50:04;22.13;;;17.45;;
21868;SDS011;11099;41.564;23.296;2023-06-26T03:52:30;22.23;;;17.65;;
21868;SDS011;11099;41.564;23.296;2023-06-26T03:54:59;26.63;;;17.42;;
21868;SDS011;11099;41.564;23.296;2023-06-26T03:57:25;22.52;;;17.95;;
21868;SDS011;11099;41.564;23.296;2023-06-26T03:59:51;27.33;;;19.65;;
21868;SDS011;11099;41.564;23.296;2023-06-26T04:02:17;26.05;;;19.83;;
21868;SDS011;11099;41.564;23.296;2023-06-26T04:04:43;24.20;;;19.55;;
21868;SDS011;11099;41.564;23.296;2023-06-26T04:07:09;25.05;;;19.17;;
21868;SDS011;11099;41.564;23.296;2023-06-26T04:09:35;24.05;;;19.92;;
21868;SDS011;11099;41.564;23.296;2023-06-26T04:12:00;22.52;;;18.15;;
21868;SDS011;11099;41.564;23.296;2023-06-26T04:14:26;24.90;;;18.33;;
21868;SDS011;11099;41.564;23.296;2023-06-26T04:16:51;21.52;;;17.95;;
21868;SDS011;11099;41.564;23.296;2023-06-26T04:19:17;22.42;;;17.83;;
21868;SDS011;11099;41.564;23.296;2023-06-26T04:21:43;26.33;;;17.30;;
21868;SDS011;11099;41.564;23.296;2023-06-26T04:24:08;22.85;;;17.58;;
21868;SDS011;11099;41.564;23.296;2023-06-26T04:26:34;19.15;;;16.83;;
21868;SDS011;11099;41.564;23.296;2023-06-26T04:29:00;25.13;;;16.73;;
21868;SDS011;11099;41.564;23.296;2023-06-26T04:31:26;21.60;;;16.33;;
21868;SDS011;11099;41.564;23.296;2023-06-26T04:33:51;19.83;;;15.32;;
21868;SDS011;11099;41.564;23.296;2023-06-26T04:36:19;21.17;;;15.90;;
21868;SDS011;11099;41.564;23.296;2023-06-26T04:38:46;18.55;;;14.90;;
21868;SDS011;11099;41.564;23.296;2023-06-26T04:41:13;20.05;;;14.85;;
21868;SDS011;11099;41.564;23.296;2023-06-26T04:43:39;23.52;;;15.60;;
21868;SDS011;11099;41.564;23.296;2023-06-26T04:46:05;22.95;;;16.25;;
21868;SDS011;11099;41.564;23.296;2023-06-26T04:48:31;18.85;;;16.85;;
21868;SDS011;11099;41.564;23.296;2023-06-26T04:50:56;20.38;;;15.65;;
21868;SDS011;11099;41.564;23.296;2023-06-26T04:53:24;19.42;;;15.68;;
21868;SDS011;11099;41.564;23.296;2023-06-26T04:55:50;20.17;;;15.13;;
21868;SDS011;11099;41.564;23.296;2023-06-26T04:58:16;17.48;;;15.23;;
21868;SDS011;11099;41.564;23.296;2023-06-26T05:00:42;18.75;;;15.18;;
21868;SDS011;11099;41.564;23.296;2023-06-26T05:03:11;18.33;;;15.77;;
21868;SDS011;11099;41.564;23.296;2023-06-26T05:05:37;22.88;;;16.05;;
21868;SDS011;11099;41.564;23.296;2023-06-26T05:08:16;24.63;;;16.75;;
21868;SDS011;11099;41.564;23.296;2023-06-26T05:10:42;19.45;;;15.80;;
21868;SDS011;11099;41.564;23.296;2023-06-26T05:13:09;18.05;;;15.23;;
21868;SDS011;11099;41.564;23.296;2023-06-26T05:15:35;17.88;;;15.88;;
21868;SDS011;11099;41.564;23.296;2023-06-26T05:18:01;20.05;;;15.50;;
21868;SDS011;11099;41.564;23.296;2023-06-26T05:20:26;21.45;;;15.73;;
21868;SDS011;11099;41.564;23.296;2023-06-26T05:22:52;18.38;;;14.95;;
21868;SDS011;11099;41.564;23.296;2023-06-26T05:25:18;17.98;;;13.85;;
21868;SDS011;11099;41.564;23.296;2023-06-26T05:27:46;16.87;;;13.77;;
21868;SDS011;11099;41.564;23.296;2023-06-26T05:30:13;16.10;;;14.23;;
21868;SDS011;11099;41.564;23.296;2023-06-26T05:32:38;16.42;;;12.85;;
21868;SDS011;11099;41.564;23.296;2023-06-26T05:35:05;16.85;;;12.88;;
21868;SDS011;11099;41.564;23.296;2023-06-26T05:37:33;14.15;;;12.65;;
21868;SDS011;11099;41.564;23.296;2023-06-26T05:40:00;17.00;;;12.73;;
21868;SDS011;11099;41.564;23.296;2023-06-26T05:42:28;13.85;;;12.43;;
21868;SDS011;11099;41.564;23.296;2023-06-26T05:44:54;13.88;;;12.45;;
21868;SDS011;11099;41.564;23.296;2023-06-26T05:47:19;18.35;;;13.02;;
21868;SDS011;11099;41.564;23.296;2023-06-26T05:49:45;13.05;;;11.85;;
21868;SDS011;11099;41.564;23.296;2023-06-26T05:52:11;14.38;;;12.40;;
21868;SDS011;11099;41.564;23.296;2023-06-26T05:54:37;12.60;;;11.40;;
21868;SDS011;11099;41.564;23.296;2023-06-26T05:57:06;14.65;;;13.07;;
21868;SDS011;11099;41.564;23.296;2023-06-26T05:59:32;17.58;;;12.73;;
21868;SDS011;11099;41.564;23.296;2023-06-26T06:01:58;14.35;;;12.18;;
21868;SDS011;11099;41.564;23.296;2023-06-26T06:04:23;19.13;;;13.90;;
21868;SDS011;11099;41.564;23.296;2023-06-26T06:06:49;15.93;;;12.85;;
21868;SDS011;11099;41.564;23.296;2023-06-26T06:09:14;16.92;;;12.27;;
21868;SDS011;11099;41.564;23.296;2023-06-26T06:11:40;15.50;;;12.63;;
21868;SDS011;11099;41.564;23.296;2023-06-26T06:14:06;13.77;;;12.15;;
21868;SDS011;11099;41.564;23.296;2023-06-26T06:16:31;15.98;;;12.07;;
21868;SDS011;11099;41.564;23.296;2023-06-26T06:18:57;12.52;;;10.50;;
21868;SDS011;11099;41.564;23.296;2023-06-26T06:21:22;12.15;;;10.75;;
21868;SDS011;11099;41.564;23.296;2023-06-26T06:23:48;14.38;;;10.90;;
21868;SDS011;11099;41.564;23.296;2023-06-26T06:26:13;15.60;;;11.45;;
21868;SDS011;11099;41.564;23.296;2023-06-26T06:28:39;12.55;;;11.32;;
21868;SDS011;11099;41.564;23.296;2023-06-26T06:31:05;12.65;;;10.85;;
21868;SDS011;11099;41.564;23.296;2023-06-26T06:33:30;12.07;;;10.55;;
21868;SDS011;11099;41.564;23.296;2023-06-26T06:35:56;13.52;;;11.48;;
21868;SDS011;11099;41.564;23.296;2023-06-26T06:38:22;13.80;;;11.35;;
21868;SDS011;11099;41.564;23.296;2023-06-26T06:40:47;12.85;;;11.02;;
21868;SDS011;11099;41.564;23.296;2023-06-26T06:43:13;12.65;;;10.98;;
21868;SDS011;11099;41.564;23.296;2023-06-26T06:45:39;12.93;;;10.65;;
21868;SDS011;11099;41.564;23.296;2023-06-26T06:48:08;11.45;;;10.32;;
21868;SDS011;11099;41.564;23.296;2023-06-26T06:50:33;14.27;;;11.00;;
21868;SDS011;11099;41.564;23.296;2023-06-26T06:52:59;12.23;;;10.48;;
21868;SDS011;11099;41.564;23.296;2023-06-26T06:55:24;11.90;;;10.40;;
21868;SDS011;11099;41.564;23.296;2023-06-26T06:57:50;11.45;;;10.23;;
21868;SDS011;11099;41.564;23.296;2023-06-26T07:00:16;12.23;;;10.02;;
21868;SDS011;11099;41.564;23.296;2023-06-26T07:02:43;16.05;;;9.50;;
21868;SDS011;11099;41.564;23.296;2023-06-26T07:05:09;13.20;;;9.57;;
21868;SDS011;11099;41.564;23.296;2023-06-26T07:07:36;11.48;;;9.73;;
21868;SDS011;11099;41.564;23.296;2023-06-26T07:10:03;12.10;;;9.50;;
21868;SDS011;11099;41.564;23.296;2023-06-26T07:12:31;10.83;;;9.87;;
21868;SDS011;11099;41.564;23.296;2023-06-26T07:14:56;10.80;;;9.65;;
21868;SDS011;11099;41.564;23.296;2023-06-26T07:17:22;11.82;;;9.13;;
21868;SDS011;11099;41.564;23.296;2023-06-26T07:19:49;13.05;;;9.25;;
21868;SDS011;11099;41.564;23.296;2023-06-26T07:22:14;10.90;;;9.80;;
21868;SDS011;11099;41.564;23.296;2023-06-26T07:24:40;12.93;;;9.68;;
21868;SDS011;11099;41.564;23.296;2023-06-26T07:27:05;10.35;;;9.35;;
21868;SDS011;11099;41.564;23.296;2023-06-26T07:29:31;11.32;;;9.13;;
21868;SDS011;11099;41.564;23.296;2023-06-26T07:31:56;9.75;;;8.82;;
21868;SDS011;11099;41.564;23.296;2023-06-26T07:34:22;11.48;;;8.75;;
21868;SDS011;11099;41.564;23.296;2023-06-26T07:36:47;9.65;;;8.63;;
21868;SDS011;11099;41.564;23.296;2023-06-26T07:39:13;9.57;;;8.73;;
21868;SDS011;11099;41.564;23.296;2023-06-26T07:41:38;12.30;;;9.05;;
21868;SDS011;11099;41.564;23.296;2023-06-26T07:44:04;8.98;;;8.10;;
21868;SDS011;11099;41.564;23.296;2023-06-26T07:46:29;8.80;;;7.82;;
21868;SDS011;11099;41.564;23.296;2023-06-26T07:48:55;10.95;;;7.95;;
21868;SDS011;11099;41.564;23.296;2023-06-26T07:51:20;9.15;;;8.30;;
21868;SDS011;11099;41.564;23.296;2023-06-26T07:53:46;10.05;;;8.15;;
21868;SDS011;11099;41.564;23.296;2023-06-26T07:56:12;10.60;;;7.05;;
21868;SDS011;11099;41.564;23.296;2023-06-26T07:58:37;11.80;;;7.38;;
21868;SDS011;11099;41.564;23.296;2023-06-26T08:01:03;8.02;;;7.25;;
21868;SDS011;11099;41.564;23.296;2023-06-26T08:03:28;7.53;;;6.07;;
21868;SDS011;11099;41.564;23.296;2023-06-26T08:05:54;9.48;;;7.25;;
21868;SDS011;11099;41.564;23.296;2023-06-26T08:08:20;9.20;;;7.35;;
21868;SDS011;11099;41.564;23.296;2023-06-26T08:10:46;8.32;;;7.53;;
21868;SDS011;11099;41.564;23.296;2023-06-26T08:13:11;8.60;;;7.80;;
21868;SDS011;11099;41.564;23.296;2023-06-26T08:15:37;8.20;;;7.05;;
21868;SDS011;11099;41.564;23.296;2023-06-26T08:18:02;7.55;;;6.78;;
21868;SDS011;11099;41.564;23.296;2023-06-26T08:20:28;7.90;;;6.70;;
21868;SDS011;11099;41.564;23.296;2023-06-26T08:22:54;8.23;;;7.18;;
21868;SDS011;11099;41.564;23.296;2023-06-26T08:25:20;8.45;;;7.65;;
21868;SDS011;11099;41.564;23.296;2023-06-26T08:27:45;8.25;;;7.45;;
21868;SDS011;11099;41.564;23.296;2023-06-26T08:30:11;8.18;;;7.40;;
21868;SDS011;11099;41.564;23.296;2023-06-26T08:32:38;8.43;;;7.55;;
21868;SDS011;11099;41.564;23.296;2023-06-26T08:35:04;8.80;;;8.00;;
21868;SDS011;11099;41.564;23.296;2023-06-26T08:37:31;8.20;;;7.40;;
21868;SDS011;11099;41.564;23.296;2023-06-26T08:39:57;12.57;;;8.27;;
21868;SDS011;11099;41.564;23.296;2023-06-26T08:42:24;8.90;;;8.00;;
21868;SDS011;11099;41.564;23.296;2023-06-26T08:44:50;9.38;;;8.23;;
21868;SDS011;11099;41.564;23.296;2023-06-26T08:47:15;14.07;;;8.57;;
21868;SDS011;11099;41.564;23.296;2023-06-26T08:52:10;9.07;;;8.10;;
21868;SDS011;11099;41.564;23.296;2023-06-26T08:54:45;10.13;;;8.65;;
21868;SDS011;11099;41.564;23.296;2023-06-26T08:57:14;9.13;;;8.30;;
21868;SDS011;11099;41.564;23.296;2023-06-26T08:59:43;10.05;;;8.88;;
21868;SDS011;11099;41.564;23.296;2023-06-26T09:02:08;11.68;;;9.05;;
21868;SDS011;11099;41.564;23.296;2023-06-26T09:04:35;9.88;;;8.50;;
21868;SDS011;11099;41.564;23.296;2023-06-26T09:07:01;10.80;;;8.50;;
